Forside
METAR-TAF:

METAR-TAF

Lufthavne :

Cheboygan County Airport

Cheboygan, Michigan, USA

Breddekreds: 45-39-13N, længdekreds: 084-31-09W, højde: 195 m

Aktuelle vejr

Denne rapport blev lavet for 50 minutter siden, kl. 12:56 UTC
Vind 4 kt fra nord
Temperatur 1°C
Fugtighed 86%
Tryk 1020 hPa
Sigt: 16.1 km
Overskyet i en højde af 1800 ft

METAR: KSLH 311256Z AUTO 36004KT 10SM OVC018 01/M01 A3013 RMK AO2 T00121009

Tid: 09:46 (13:46 UTC)


TAF: fraværende

Vejrobservationer og prognoser fra mere end 4000 lufthavne (METAR og TAF).

De gule og røde prikker repræsenterer de meteorologiske stationer.

Flyt musen over at se navnet på stationen.

Så klik over at se vejr observationer og prognoser.

At skifte det kort: Klik på de grønne knapper med et sort kors for at zoome ind; på den grønne knap med en bindestreg for at zoome ud; eller på de grønne pile for tilstødende kort.


METAR-TAF: